sensor_id;sensor_type;location;lat;lon;timestamp;P1;durP1;ratioP1;P2;durP2;ratioP2
2544;SDS011;36212;48.838;9.142;2023-07-29T00:00:06;4.17;;;3.07;;
2544;SDS011;36212;48.838;9.142;2023-07-29T00:02:40;8.73;;;3.03;;
2544;SDS011;36212;48.838;9.142;2023-07-29T00:05:12;2.97;;;2.77;;
2544;SDS011;36212;48.838;9.142;2023-07-29T00:07:44;4.17;;;2.73;;
2544;SDS011;36212;48.838;9.142;2023-07-29T00:10:17;3.00;;;2.80;;
2544;SDS011;36212;48.838;9.142;2023-07-29T00:12:49;2.73;;;2.63;;
2544;SDS011;36212;48.838;9.142;2023-07-29T00:15:21;3.60;;;3.30;;
2544;SDS011;36212;48.838;9.142;2023-07-29T00:17:54;2.83;;;2.63;;
2544;SDS011;36212;48.838;9.142;2023-07-29T00:20:26;2.63;;;2.47;;
2544;SDS011;36212;48.838;9.142;2023-07-29T00:22:58;2.57;;;2.37;;
2544;SDS011;36212;48.838;9.142;2023-07-29T00:25:31;3.17;;;2.83;;
2544;SDS011;36212;48.838;9.142;2023-07-29T00:28:04;2.10;;;2.00;;
2544;SDS011;36212;48.838;9.142;2023-07-29T00:30:36;2.20;;;2.10;;
2544;SDS011;36212;48.838;9.142;2023-07-29T00:33:08;2.77;;;2.43;;
2544;SDS011;36212;48.838;9.142;2023-07-29T00:35:40;2.37;;;2.27;;
2544;SDS011;36212;48.838;9.142;2023-07-29T00:38:13;2.50;;;2.40;;
2544;SDS011;36212;48.838;9.142;2023-07-29T00:40:45;2.73;;;2.63;;
2544;SDS011;36212;48.838;9.142;2023-07-29T00:43:17;2.67;;;2.47;;
2544;SDS011;36212;48.838;9.142;2023-07-29T00:45:50;3.17;;;2.97;;
2544;SDS011;36212;48.838;9.142;2023-07-29T00:48:22;3.10;;;2.80;;
2544;SDS011;36212;48.838;9.142;2023-07-29T00:50:55;2.63;;;2.43;;
2544;SDS011;36212;48.838;9.142;2023-07-29T00:53:28;2.40;;;2.30;;
2544;SDS011;36212;48.838;9.142;2023-07-29T00:56:00;2.20;;;2.10;;
2544;SDS011;36212;48.838;9.142;2023-07-29T00:58:33;2.50;;;2.30;;
2544;SDS011;36212;48.838;9.142;2023-07-29T01:01:05;2.17;;;2.07;;
2544;SDS011;36212;48.838;9.142;2023-07-29T01:03:38;2.30;;;2.20;;
2544;SDS011;36212;48.838;9.142;2023-07-29T01:06:15;2.10;;;2.00;;
2544;SDS011;36212;48.838;9.142;2023-07-29T01:09:43;2.40;;;2.30;;
2544;SDS011;36212;48.838;9.142;2023-07-29T01:15:55;2.80;;;2.60;;
2544;SDS011;36212;48.838;9.142;2023-07-29T01:18:40;2.63;;;2.43;;
2544;SDS011;36212;48.838;9.142;2023-07-29T01:21:15;2.80;;;2.60;;
2544;SDS011;36212;48.838;9.142;2023-07-29T01:23:52;2.63;;;2.43;;
2544;SDS011;36212;48.838;9.142;2023-07-29T01:26:28;2.90;;;2.77;;
2544;SDS011;36212;48.838;9.142;2023-07-29T01:29:00;3.20;;;2.63;;
2544;SDS011;36212;48.838;9.142;2023-07-29T01:31:34;2.60;;;2.40;;
2544;SDS011;36212;48.838;9.142;2023-07-29T01:34:17;2.77;;;2.57;;
2544;SDS011;36212;48.838;9.142;2023-07-29T01:37:02;3.30;;;3.10;;
2544;SDS011;36212;48.838;9.142;2023-07-29T01:39:39;2.80;;;2.60;;
2544;SDS011;36212;48.838;9.142;2023-07-29T01:42:14;3.40;;;3.20;;
2544;SDS011;36212;48.838;9.142;2023-07-29T01:44:47;3.10;;;2.90;;
2544;SDS011;36212;48.838;9.142;2023-07-29T01:47:20;3.43;;;2.80;;
2544;SDS011;36212;48.838;9.142;2023-07-29T01:49:53;3.83;;;3.50;;
2544;SDS011;36212;48.838;9.142;2023-07-29T01:52:26;3.43;;;3.00;;
2544;SDS011;36212;48.838;9.142;2023-07-29T01:54:58;2.80;;;2.60;;
2544;SDS011;36212;48.838;9.142;2023-07-29T01:57:30;3.57;;;3.30;;
2544;SDS011;36212;48.838;9.142;2023-07-29T02:00:02;3.10;;;2.87;;
2544;SDS011;36212;48.838;9.142;2023-07-29T02:02:36;2.97;;;2.77;;
2544;SDS011;36212;48.838;9.142;2023-07-29T02:05:08;3.40;;;3.20;;
2544;SDS011;36212;48.838;9.142;2023-07-29T02:07:40;3.20;;;2.90;;
2544;SDS011;36212;48.838;9.142;2023-07-29T02:10:12;3.10;;;2.80;;
2544;SDS011;36212;48.838;9.142;2023-07-29T02:12:45;2.73;;;2.53;;
2544;SDS011;36212;48.838;9.142;2023-07-29T02:15:17;2.90;;;2.70;;
2544;SDS011;36212;48.838;9.142;2023-07-29T02:17:50;2.67;;;2.43;;
2544;SDS011;36212;48.838;9.142;2023-07-29T02:20:23;2.70;;;2.50;;
2544;SDS011;36212;48.838;9.142;2023-07-29T02:22:55;3.07;;;2.73;;
2544;SDS011;36212;48.838;9.142;2023-07-29T02:25:27;2.30;;;2.20;;
2544;SDS011;36212;48.838;9.142;2023-07-29T02:28:00;3.60;;;2.57;;
2544;SDS011;36212;48.838;9.142;2023-07-29T02:30:33;2.77;;;2.57;;
2544;SDS011;36212;48.838;9.142;2023-07-29T02:33:06;2.90;;;2.63;;
2544;SDS011;36212;48.838;9.142;2023-07-29T02:35:38;2.87;;;2.67;;
2544;SDS011;36212;48.838;9.142;2023-07-29T02:38:10;4.07;;;2.80;;
2544;SDS011;36212;48.838;9.142;2023-07-29T02:40:42;2.63;;;2.53;;
2544;SDS011;36212;48.838;9.142;2023-07-29T02:43:14;3.30;;;3.10;;
2544;SDS011;36212;48.838;9.142;2023-07-29T02:45:47;3.07;;;2.77;;
2544;SDS011;36212;48.838;9.142;2023-07-29T02:48:19;3.00;;;2.90;;
2544;SDS011;36212;48.838;9.142;2023-07-29T02:50:51;3.53;;;2.97;;
2544;SDS011;36212;48.838;9.142;2023-07-29T02:53:24;3.00;;;2.90;;
2544;SDS011;36212;48.838;9.142;2023-07-29T02:55:56;3.27;;;2.97;;
2544;SDS011;36212;48.838;9.142;2023-07-29T02:58:29;3.30;;;3.10;;
2544;SDS011;36212;48.838;9.142;2023-07-29T03:01:04;3.43;;;3.23;;
2544;SDS011;36212;48.838;9.142;2023-07-29T03:03:37;3.20;;;2.90;;
2544;SDS011;36212;48.838;9.142;2023-07-29T03:06:11;3.10;;;2.90;;
2544;SDS011;36212;48.838;9.142;2023-07-29T03:08:45;2.60;;;2.50;;
2544;SDS011;36212;48.838;9.142;2023-07-29T03:11:17;2.80;;;2.60;;
2544;SDS011;36212;48.838;9.142;2023-07-29T03:13:50;4.23;;;3.30;;
2544;SDS011;36212;48.838;9.142;2023-07-29T03:16:22;3.83;;;3.00;;
2544;SDS011;36212;48.838;9.142;2023-07-29T03:18:55;4.97;;;2.87;;
2544;SDS011;36212;48.838;9.142;2023-07-29T03:21:27;3.10;;;2.90;;
2544;SDS011;36212;48.838;9.142;2023-07-29T03:24:00;6.93;;;2.97;;
2544;SDS011;36212;48.838;9.142;2023-07-29T03:26:32;4.53;;;3.00;;
2544;SDS011;36212;48.838;9.142;2023-07-29T03:29:04;8.70;;;2.73;;
2544;SDS011;36212;48.838;9.142;2023-07-29T03:31:37;2.83;;;2.63;;
2544;SDS011;36212;48.838;9.142;2023-07-29T03:34:10;2.87;;;2.63;;
2544;SDS011;36212;48.838;9.142;2023-07-29T03:36:44;3.27;;;3.07;;
2544;SDS011;36212;48.838;9.142;2023-07-29T03:39:21;2.90;;;2.80;;
2544;SDS011;36212;48.838;9.142;2023-07-29T03:41:53;2.77;;;2.57;;
2544;SDS011;36212;48.838;9.142;2023-07-29T03:44:25;3.00;;;2.80;;
2544;SDS011;36212;48.838;9.142;2023-07-29T03:46:57;3.30;;;2.60;;
2544;SDS011;36212;48.838;9.142;2023-07-29T03:49:29;3.13;;;2.80;;
2544;SDS011;36212;48.838;9.142;2023-07-29T03:52:02;3.23;;;2.87;;
2544;SDS011;36212;48.838;9.142;2023-07-29T03:54:34;2.73;;;2.63;;
2544;SDS011;36212;48.838;9.142;2023-07-29T03:57:07;2.83;;;2.63;;
2544;SDS011;36212;48.838;9.142;2023-07-29T03:59:39;2.63;;;2.43;;
2544;SDS011;36212;48.838;9.142;2023-07-29T04:02:11;5.43;;;2.80;;
2544;SDS011;36212;48.838;9.142;2023-07-29T04:04:44;3.00;;;2.80;;
2544;SDS011;36212;48.838;9.142;2023-07-29T04:07:19;2.70;;;2.60;;
2544;SDS011;36212;48.838;9.142;2023-07-29T04:09:51;3.07;;;2.80;;
2544;SDS011;36212;48.838;9.142;2023-07-29T04:12:23;4.97;;;3.07;;
2544;SDS011;36212;48.838;9.142;2023-07-29T04:14:56;3.17;;;2.97;;
2544;SDS011;36212;48.838;9.142;2023-07-29T04:17:28;3.17;;;2.63;;
2544;SDS011;36212;48.838;9.142;2023-07-29T04:20:00;2.80;;;2.60;;
2544;SDS011;36212;48.838;9.142;2023-07-29T04:22:33;2.67;;;2.47;;
2544;SDS011;36212;48.838;9.142;2023-07-29T04:25:06;3.03;;;2.80;;
2544;SDS011;36212;48.838;9.142;2023-07-29T04:27:38;2.93;;;2.63;;
2544;SDS011;36212;48.838;9.142;2023-07-29T04:30:10;2.93;;;2.83;;
2544;SDS011;36212;48.838;9.142;2023-07-29T04:32:43;3.30;;;3.00;;
2544;SDS011;36212;48.838;9.142;2023-07-29T04:35:18;2.57;;;2.37;;
2544;SDS011;36212;48.838;9.142;2023-07-29T04:37:50;3.17;;;2.90;;
2544;SDS011;36212;48.838;9.142;2023-07-29T04:40:22;3.40;;;2.57;;
2544;SDS011;36212;48.838;9.142;2023-07-29T04:42:55;3.13;;;2.93;;
2544;SDS011;36212;48.838;9.142;2023-07-29T04:45:30;3.13;;;2.93;;
2544;SDS011;36212;48.838;9.142;2023-07-29T04:48:02;3.30;;;2.90;;
2544;SDS011;36212;48.838;9.142;2023-07-29T04:50:34;3.60;;;2.80;;
2544;SDS011;36212;48.838;9.142;2023-07-29T04:53:06;2.80;;;2.60;;
2544;SDS011;36212;48.838;9.142;2023-07-29T04:55:41;6.13;;;2.80;;
2544;SDS011;36212;48.838;9.142;2023-07-29T04:58:15;3.67;;;3.10;;
2544;SDS011;36212;48.838;9.142;2023-07-29T05:00:47;3.17;;;3.07;;
2544;SDS011;36212;48.838;9.142;2023-07-29T05:03:19;3.50;;;3.30;;
2544;SDS011;36212;48.838;9.142;2023-07-29T05:05:51;3.83;;;3.13;;
2544;SDS011;36212;48.838;9.142;2023-07-29T05:08:28;3.10;;;2.90;;
2544;SDS011;36212;48.838;9.142;2023-07-29T05:11:00;3.50;;;3.20;;
2544;SDS011;36212;48.838;9.142;2023-07-29T05:13:33;3.80;;;3.37;;
2544;SDS011;36212;48.838;9.142;2023-07-29T05:16:05;4.20;;;3.40;;
2544;SDS011;36212;48.838;9.142;2023-07-29T05:18:37;3.47;;;3.17;;
2544;SDS011;36212;48.838;9.142;2023-07-29T05:21:09;3.53;;;3.23;;
2544;SDS011;36212;48.838;9.142;2023-07-29T05:23:44;3.70;;;3.43;;
2544;SDS011;36212;48.838;9.142;2023-07-29T05:26:17;3.60;;;3.30;;
2544;SDS011;36212;48.838;9.142;2023-07-29T05:28:49;3.47;;;3.27;;
2544;SDS011;36212;48.838;9.142;2023-07-29T05:31:21;3.83;;;3.57;;
2544;SDS011;36212;48.838;9.142;2023-07-29T05:33:54;3.00;;;2.80;;
2544;SDS011;36212;48.838;9.142;2023-07-29T05:36:26;3.17;;;2.87;;
2544;SDS011;36212;48.838;9.142;2023-07-29T05:38:59;4.93;;;3.93;;
2544;SDS011;36212;48.838;9.142;2023-07-29T05:41:31;3.77;;;3.47;;
2544;SDS011;36212;48.838;9.142;2023-07-29T05:44:03;4.17;;;3.87;;
2544;SDS011;36212;48.838;9.142;2023-07-29T05:46:40;5.93;;;4.43;;
2544;SDS011;36212;48.838;9.142;2023-07-29T05:49:12;4.33;;;3.93;;
2544;SDS011;36212;48.838;9.142;2023-07-29T05:51:44;4.20;;;3.90;;
2544;SDS011;36212;48.838;9.142;2023-07-29T05:54:17;4.53;;;4.13;;
2544;SDS011;36212;48.838;9.142;2023-07-29T05:56:49;6.53;;;3.77;;
2544;SDS011;36212;48.838;9.142;2023-07-29T05:59:22;4.73;;;3.90;;
2544;SDS011;36212;48.838;9.142;2023-07-29T06:01:54;3.73;;;3.43;;
2544;SDS011;36212;48.838;9.142;2023-07-29T06:04:26;3.70;;;3.40;;
2544;SDS011;36212;48.838;9.142;2023-07-29T06:06:58;5.10;;;3.60;;
2544;SDS011;36212;48.838;9.142;2023-07-29T06:09:30;3.40;;;3.10;;
2544;SDS011;36212;48.838;9.142;2023-07-29T06:12:03;3.23;;;3.03;;
2544;SDS011;36212;48.838;9.142;2023-07-29T06:14:36;3.50;;;2.97;;
2544;SDS011;36212;48.838;9.142;2023-07-29T06:17:08;3.90;;;3.10;;
2544;SDS011;36212;48.838;9.142;2023-07-29T06:19:43;3.10;;;2.90;;
2544;SDS011;36212;48.838;9.142;2023-07-29T06:22:15;2.90;;;2.70;;
2544;SDS011;36212;48.838;9.142;2023-07-29T06:24:47;5.60;;;2.50;;
2544;SDS011;36212;48.838;9.142;2023-07-29T06:27:19;4.10;;;3.13;;
2544;SDS011;36212;48.838;9.142;2023-07-29T06:29:54;3.03;;;2.70;;
2544;SDS011;36212;48.838;9.142;2023-07-29T06:32:27;2.90;;;2.70;;
2544;SDS011;36212;48.838;9.142;2023-07-29T06:34:59;3.80;;;3.50;;
2544;SDS011;36212;48.838;9.142;2023-07-29T06:37:31;4.10;;;3.20;;
2544;SDS011;36212;48.838;9.142;2023-07-29T06:40:05;3.67;;;3.40;;
2544;SDS011;36212;48.838;9.142;2023-07-29T06:42:38;4.67;;;3.00;;
2544;SDS011;36212;48.838;9.142;2023-07-29T06:45:10;2.87;;;2.67;;
2544;SDS011;36212;48.838;9.142;2023-07-29T06:47:42;4.03;;;3.40;;
2544;SDS011;36212;48.838;9.142;2023-07-29T06:50:16;4.03;;;3.40;;
2544;SDS011;36212;48.838;9.142;2023-07-29T06:52:49;2.80;;;2.60;;
2544;SDS011;36212;48.838;9.142;2023-07-29T06:55:21;3.13;;;2.93;;
2544;SDS011;36212;48.838;9.142;2023-07-29T06:57:53;3.97;;;2.70;;
2544;SDS011;36212;48.838;9.142;2023-07-29T07:00:25;3.33;;;3.13;;
2544;SDS011;36212;48.838;9.142;2023-07-29T07:02:58;3.03;;;2.83;;
2544;SDS011;36212;48.838;9.142;2023-07-29T07:05:30;2.23;;;2.13;;
2544;SDS011;36212;48.838;9.142;2023-07-29T07:08:02;3.00;;;2.80;;
2544;SDS011;36212;48.838;9.142;2023-07-29T07:10:35;3.30;;;3.10;;
2544;SDS011;36212;48.838;9.142;2023-07-29T07:13:07;3.13;;;2.57;;
2544;SDS011;36212;48.838;9.142;2023-07-29T07:15:39;3.40;;;2.60;;
2544;SDS011;36212;48.838;9.142;2023-07-29T07:18:11;2.70;;;2.50;;
2544;SDS011;36212;48.838;9.142;2023-07-29T07:20:47;2.90;;;2.50;;
2544;SDS011;36212;48.838;9.142;2023-07-29T07:23:20;2.60;;;2.50;;
2544;SDS011;36212;48.838;9.142;2023-07-29T07:25:52;2.63;;;2.43;;
2544;SDS011;36212;48.838;9.142;2023-07-29T07:28:24;2.73;;;2.40;;
2544;SDS011;36212;48.838;9.142;2023-07-29T07:30:57;2.50;;;2.30;;
2544;SDS011;36212;48.838;9.142;2023-07-29T07:33:29;2.87;;;2.67;;
2544;SDS011;36212;48.838;9.142;2023-07-29T07:36:04;2.70;;;2.40;;
2544;SDS011;36212;48.838;9.142;2023-07-29T07:38:36;3.70;;;2.30;;
2544;SDS011;36212;48.838;9.142;2023-07-29T07:41:09;2.80;;;2.00;;
2544;SDS011;36212;48.838;9.142;2023-07-29T07:43:53;2.97;;;2.77;;
2544;SDS011;36212;48.838;9.142;2023-07-29T07:46:39;2.90;;;2.70;;
2544;SDS011;36212;48.838;9.142;2023-07-29T07:49:12;2.70;;;2.50;;
2544;SDS011;36212;48.838;9.142;2023-07-29T07:51:45;2.43;;;2.23;;
2544;SDS011;36212;48.838;9.142;2023-07-29T07:54:17;3.07;;;2.27;;
2544;SDS011;36212;48.838;9.142;2023-07-29T07:56:49;2.50;;;2.33;;
2544;SDS011;36212;48.838;9.142;2023-07-29T07:59:22;1.80;;;1.70;;
2544;SDS011;36212;48.838;9.142;2023-07-29T08:01:54;1.90;;;1.80;;
2544;SDS011;36212;48.838;9.142;2023-07-29T08:04:27;1.60;;;1.50;;
2544;SDS011;36212;48.838;9.142;2023-07-29T08:06:59;2.10;;;1.90;;
2544;SDS011;36212;48.838;9.142;2023-07-29T08:09:35;2.00;;;1.70;;
2544;SDS011;36212;48.838;9.142;2023-07-29T08:12:07;2.40;;;2.23;;
2544;SDS011;36212;48.838;9.142;2023-07-29T08:14:39;1.87;;;1.77;;
2544;SDS011;36212;48.838;9.142;2023-07-29T08:17:12;2.23;;;1.40;;
2544;SDS011;36212;48.838;9.142;2023-07-29T08:19:44;1.73;;;1.40;;
2544;SDS011;36212;48.838;9.142;2023-07-29T08:22:16;1.67;;;1.40;;
2544;SDS011;36212;48.838;9.142;2023-07-29T08:24:49;1.87;;;1.60;;
2544;SDS011;36212;48.838;9.142;2023-07-29T08:27:21;1.50;;;1.40;;
2544;SDS011;36212;48.838;9.142;2023-07-29T08:29:53;1.43;;;1.33;;
2544;SDS011;36212;48.838;9.142;2023-07-29T08:32:26;1.60;;;1.50;;
2544;SDS011;36212;48.838;9.142;2023-07-29T08:34:58;1.90;;;1.70;;
2544;SDS011;36212;48.838;9.142;2023-07-29T08:37:31;2.00;;;1.90;;
2544;SDS011;36212;48.838;9.142;2023-07-29T08:40:04;2.07;;;1.70;;
2544;SDS011;36212;48.838;9.142;2023-07-29T08:42:38;1.63;;;1.33;;
2544;SDS011;36212;48.838;9.142;2023-07-29T08:45:15;1.60;;;1.50;;
2544;SDS011;36212;48.838;9.142;2023-07-29T08:47:49;1.83;;;1.73;;
2544;SDS011;36212;48.838;9.142;2023-07-29T08:50:28;1.70;;;1.60;;
2544;SDS011;36212;48.838;9.142;2023-07-29T08:53:06;1.60;;;1.43;;
2544;SDS011;36212;48.838;9.142;2023-07-29T08:55:38;1.60;;;1.50;;
2544;SDS011;36212;48.838;9.142;2023-07-29T09:01:12;1.50;;;1.40;;
2544;SDS011;36212;48.838;9.142;2023-07-29T09:04:34;1.70;;;1.60;;
2544;SDS011;36212;48.838;9.142;2023-07-29T09:10:05;1.73;;;1.63;;
2544;SDS011;36212;48.838;9.142;2023-07-29T09:13:33;1.70;;;1.60;;
2544;SDS011;36212;48.838;9.142;2023-07-29T09:16:39;3.03;;;1.77;;
2544;SDS011;36212;48.838;9.142;2023-07-29T09:23:54;2.80;;;1.50;;
2544;SDS011;36212;48.838;9.142;2023-07-29T09:30:38;1.80;;;1.70;;
2544;SDS011;36212;48.838;9.142;2023-07-29T09:33:36;1.50;;;1.40;;
2544;SDS011;36212;48.838;9.142;2023-07-29T09:36:20;1.77;;;1.67;;
2544;SDS011;36212;48.838;9.142;2023-07-29T09:39:24;1.40;;;1.30;;
2544;SDS011;36212;48.838;9.142;2023-07-29T09:43:34;5.10;;;1.70;;
2544;SDS011;36212;48.838;9.142;2023-07-29T09:51:42;1.57;;;1.47;;
2544;SDS011;36212;48.838;9.142;2023-07-29T09:54:39;1.93;;;1.83;;
2544;SDS011;36212;48.838;9.142;2023-07-29T09:57:26;1.80;;;1.70;;
2544;SDS011;36212;48.838;9.142;2023-07-29T10:00:13;1.73;;;1.63;;
2544;SDS011;36212;48.838;9.142;2023-07-29T10:02:48;1.73;;;1.63;;
2544;SDS011;36212;48.838;9.142;2023-07-29T10:05:22;2.07;;;1.97;;
2544;SDS011;36212;48.838;9.142;2023-07-29T10:07:57;1.63;;;1.53;;
2544;SDS011;36212;48.838;9.142;2023-07-29T10:10:30;1.70;;;1.60;;
2544;SDS011;36212;48.838;9.142;2023-07-29T10:13:02;1.40;;;1.30;;
2544;SDS011;36212;48.838;9.142;2023-07-29T10:15:36;1.50;;;1.40;;
2544;SDS011;36212;48.838;9.142;2023-07-29T10:18:09;1.50;;;1.40;;
2544;SDS011;36212;48.838;9.142;2023-07-29T10:20:42;1.50;;;1.40;;
2544;SDS011;36212;48.838;9.142;2023-07-29T10:23:20;1.37;;;1.27;;
2544;SDS011;36212;48.838;9.142;2023-07-29T10:26:03;1.50;;;1.40;;
2544;SDS011;36212;48.838;9.142;2023-07-29T10:28:41;1.30;;;1.20;;
2544;SDS011;36212;48.838;9.142;2023-07-29T10:31:21;1.30;;;1.20;;
2544;SDS011;36212;48.838;9.142;2023-07-29T10:33:54;1.37;;;1.27;;
2544;SDS011;36212;48.838;9.142;2023-07-29T10:36:27;1.30;;;1.20;;
2544;SDS011;36212;48.838;9.142;2023-07-29T10:39:01;1.50;;;1.40;;
2544;SDS011;36212;48.838;9.142;2023-07-29T10:47:27;1.90;;;1.53;;
2544;SDS011;36212;48.838;9.142;2023-07-29T10:50:20;1.57;;;1.47;;
2544;SDS011;36212;48.838;9.142;2023-07-29T10:52:54;1.87;;;1.60;;
2544;SDS011;36212;48.838;9.142;2023-07-29T10:55:29;1.53;;;1.43;;
2544;SDS011;36212;48.838;9.142;2023-07-29T10:58:14;1.70;;;1.60;;
2544;SDS011;36212;48.838;9.142;2023-07-29T11:00:50;1.60;;;1.50;;
2544;SDS011;36212;48.838;9.142;2023-07-29T11:03:24;1.70;;;1.60;;
2544;SDS011;36212;48.838;9.142;2023-07-29T11:06:01;1.40;;;1.27;;
2544;SDS011;36212;48.838;9.142;2023-07-29T11:08:36;2.67;;;1.50;;
2544;SDS011;36212;48.838;9.142;2023-07-29T11:11:11;2.23;;;1.70;;
2544;SDS011;36212;48.838;9.142;2023-07-29T11:13:43;1.57;;;1.47;;
2544;SDS011;36212;48.838;9.142;2023-07-29T11:16:16;1.77;;;1.67;;
2544;SDS011;36212;48.838;9.142;2023-07-29T11:18:49;4.60;;;1.80;;
2544;SDS011;36212;48.838;9.142;2023-07-29T11:21:22;3.23;;;1.63;;
2544;SDS011;36212;48.838;9.142;2023-07-29T11:23:55;1.67;;;1.57;;
2544;SDS011;36212;48.838;9.142;2023-07-29T11:26:28;2.13;;;1.70;;
2544;SDS011;36212;48.838;9.142;2023-07-29T11:29:00;1.40;;;1.30;;
2544;SDS011;36212;48.838;9.142;2023-07-29T11:31:40;1.77;;;1.67;;
2544;SDS011;36212;48.838;9.142;2023-07-29T11:34:12;1.57;;;1.47;;
2544;SDS011;36212;48.838;9.142;2023-07-29T11:37:01;1.50;;;1.40;;
2544;SDS011;36212;48.838;9.142;2023-07-29T11:39:40;1.97;;;1.57;;
2544;SDS011;36212;48.838;9.142;2023-07-29T11:42:14;1.80;;;1.70;;
2544;SDS011;36212;48.838;9.142;2023-07-29T11:44:46;1.63;;;1.53;;
2544;SDS011;36212;48.838;9.142;2023-07-29T11:47:18;1.60;;;1.50;;
2544;SDS011;36212;48.838;9.142;2023-07-29T11:49:50;1.40;;;1.30;;
2544;SDS011;36212;48.838;9.142;2023-07-29T11:52:23;1.87;;;1.77;;
2544;SDS011;36212;48.838;9.142;2023-07-29T11:54:57;2.03;;;1.93;;
2544;SDS011;36212;48.838;9.142;2023-07-29T11:57:31;1.70;;;1.60;;
2544;SDS011;36212;48.838;9.142;2023-07-29T12:00:09;1.43;;;1.33;;
2544;SDS011;36212;48.838;9.142;2023-07-29T12:02:45;1.77;;;1.40;;
2544;SDS011;36212;48.838;9.142;2023-07-29T12:05:20;1.77;;;1.67;;
2544;SDS011;36212;48.838;9.142;2023-07-29T12:07:54;1.90;;;1.80;;
2544;SDS011;36212;48.838;9.142;2023-07-29T12:10:27;1.67;;;1.40;;
2544;SDS011;36212;48.838;9.142;2023-07-29T12:13:00;2.23;;;2.03;;
2544;SDS011;36212;48.838;9.142;2023-07-29T12:15:34;1.97;;;1.87;;
2544;SDS011;36212;48.838;9.142;2023-07-29T12:18:10;1.73;;;1.63;;
2544;SDS011;36212;48.838;9.142;2023-07-29T12:20:45;1.87;;;1.77;;
2544;SDS011;36212;48.838;9.142;2023-07-29T12:23:17;1.90;;;1.80;;
2544;SDS011;36212;48.838;9.142;2023-07-29T12:25:59;1.80;;;1.70;;
2544;SDS011;36212;48.838;9.142;2023-07-29T12:28:31;2.07;;;1.60;;
2544;SDS011;36212;48.838;9.142;2023-07-29T12:31:07;1.33;;;1.23;;
2544;SDS011;36212;48.838;9.142;2023-07-29T12:33:40;1.83;;;1.73;;
2544;SDS011;36212;48.838;9.142;2023-07-29T12:36:13;2.13;;;2.03;;
2544;SDS011;36212;48.838;9.142;2023-07-29T12:38:46;2.00;;;1.90;;
2544;SDS011;36212;48.838;9.142;2023-07-29T12:41:19;2.73;;;1.90;;
2544;SDS011;36212;48.838;9.142;2023-07-29T12:43:51;2.37;;;2.17;;
2544;SDS011;36212;48.838;9.142;2023-07-29T12:46:28;1.80;;;1.70;;
2544;SDS011;36212;48.838;9.142;2023-07-29T12:49:01;4.20;;;2.10;;
2544;SDS011;36212;48.838;9.142;2023-07-29T12:51:33;1.97;;;1.80;;
2544;SDS011;36212;48.838;9.142;2023-07-29T12:54:06;2.10;;;2.00;;
2544;SDS011;36212;48.838;9.142;2023-07-29T12:56:39;1.70;;;1.60;;
2544;SDS011;36212;48.838;9.142;2023-07-29T12:59:11;2.60;;;1.90;;
2544;SDS011;36212;48.838;9.142;2023-07-29T13:01:43;1.70;;;1.60;;
2544;SDS011;36212;48.838;9.142;2023-07-29T13:04:15;2.00;;;1.90;;
2544;SDS011;36212;48.838;9.142;2023-07-29T13:06:48;1.80;;;1.70;;
2544;SDS011;36212;48.838;9.142;2023-07-29T13:09:20;2.07;;;1.70;;
2544;SDS011;36212;48.838;9.142;2023-07-29T13:11:52;1.70;;;1.60;;
2544;SDS011;36212;48.838;9.142;2023-07-29T13:14:24;1.93;;;1.80;;
2544;SDS011;36212;48.838;9.142;2023-07-29T13:16:57;2.30;;;1.87;;
2544;SDS011;36212;48.838;9.142;2023-07-29T13:19:30;1.93;;;1.83;;
2544;SDS011;36212;48.838;9.142;2023-07-29T13:22:02;2.00;;;1.90;;
2544;SDS011;36212;48.838;9.142;2023-07-29T13:24:34;1.87;;;1.77;;
2544;SDS011;36212;48.838;9.142;2023-07-29T13:27:07;1.57;;;1.47;;
2544;SDS011;36212;48.838;9.142;2023-07-29T13:29:39;1.60;;;1.50;;
2544;SDS011;36212;48.838;9.142;2023-07-29T13:32:13;2.20;;;2.10;;
2544;SDS011;36212;48.838;9.142;2023-07-29T13:34:46;2.00;;;1.90;;
2544;SDS011;36212;48.838;9.142;2023-07-29T13:37:19;2.30;;;2.20;;
2544;SDS011;36212;48.838;9.142;2023-07-29T13:39:51;2.20;;;2.10;;
2544;SDS011;36212;48.838;9.142;2023-07-29T13:42:23;1.70;;;1.60;;
2544;SDS011;36212;48.838;9.142;2023-07-29T13:44:55;1.90;;;1.80;;
2544;SDS011;36212;48.838;9.142;2023-07-29T13:47:27;1.90;;;1.70;;
2544;SDS011;36212;48.838;9.142;2023-07-29T13:50:00;1.97;;;1.87;;
2544;SDS011;36212;48.838;9.142;2023-07-29T13:52:33;1.93;;;1.57;;
2544;SDS011;36212;48.838;9.142;2023-07-29T13:55:06;1.60;;;1.50;;
2544;SDS011;36212;48.838;9.142;2023-07-29T13:57:38;2.37;;;1.50;;
2544;SDS011;36212;48.838;9.142;2023-07-29T14:00:14;2.07;;;1.63;;
2544;SDS011;36212;48.838;9.142;2023-07-29T14:02:46;1.80;;;1.70;;
2544;SDS011;36212;48.838;9.142;2023-07-29T14:05:18;5.43;;;2.30;;
2544;SDS011;36212;48.838;9.142;2023-07-29T14:07:51;2.10;;;1.90;;
2544;SDS011;36212;48.838;9.142;2023-07-29T14:10:23;2.00;;;1.90;;
2544;SDS011;36212;48.838;9.142;2023-07-29T14:12:56;2.27;;;2.07;;
2544;SDS011;36212;48.838;9.142;2023-07-29T14:15:28;1.63;;;1.53;;
2544;SDS011;36212;48.838;9.142;2023-07-29T14:18:02;2.37;;;2.10;;
2544;SDS011;36212;48.838;9.142;2023-07-29T14:20:34;2.13;;;2.03;;
2544;SDS011;36212;48.838;9.142;2023-07-29T14:23:07;1.87;;;1.77;;
2544;SDS011;36212;48.838;9.142;2023-07-29T14:25:39;1.77;;;1.67;;
2544;SDS011;36212;48.838;9.142;2023-07-29T14:28:12;2.13;;;1.97;;
2544;SDS011;36212;48.838;9.142;2023-07-29T14:30:46;2.00;;;1.90;;
2544;SDS011;36212;48.838;9.142;2023-07-29T14:33:18;1.90;;;1.80;;
2544;SDS011;36212;48.838;9.142;2023-07-29T14:35:50;1.90;;;1.70;;
2544;SDS011;36212;48.838;9.142;2023-07-29T14:38:23;2.27;;;2.17;;
2544;SDS011;36212;48.838;9.142;2023-07-29T14:40:56;2.30;;;1.97;;
2544;SDS011;36212;48.838;9.142;2023-07-29T14:43:30;1.97;;;1.87;;
2544;SDS011;36212;48.838;9.142;2023-07-29T14:46:02;2.20;;;2.10;;
2544;SDS011;36212;48.838;9.142;2023-07-29T14:48:35;5.83;;;2.07;;
2544;SDS011;36212;48.838;9.142;2023-07-29T14:51:07;2.13;;;1.60;;
2544;SDS011;36212;48.838;9.142;2023-07-29T14:53:39;2.40;;;2.20;;
2544;SDS011;36212;48.838;9.142;2023-07-29T14:56:12;2.17;;;2.07;;
2544;SDS011;36212;48.838;9.142;2023-07-29T14:58:48;1.90;;;1.80;;
2544;SDS011;36212;48.838;9.142;2023-07-29T15:01:22;2.10;;;2.00;;
2544;SDS011;36212;48.838;9.142;2023-07-29T15:03:54;1.87;;;1.77;;
2544;SDS011;36212;48.838;9.142;2023-07-29T15:06:26;1.80;;;1.70;;
2544;SDS011;36212;48.838;9.142;2023-07-29T15:08:59;2.67;;;1.90;;
2544;SDS011;36212;48.838;9.142;2023-07-29T15:11:31;3.03;;;2.77;;
2544;SDS011;36212;48.838;9.142;2023-07-29T15:14:07;2.00;;;1.90;;
2544;SDS011;36212;48.838;9.142;2023-07-29T15:16:39;2.43;;;2.23;;
2544;SDS011;36212;48.838;9.142;2023-07-29T15:19:12;5.87;;;2.87;;
2544;SDS011;36212;48.838;9.142;2023-07-29T15:21:49;2.90;;;2.70;;
2544;SDS011;36212;48.838;9.142;2023-07-29T15:24:21;2.40;;;2.20;;
2544;SDS011;36212;48.838;9.142;2023-07-29T15:26:54;4.90;;;2.80;;
2544;SDS011;36212;48.838;9.142;2023-07-29T15:29:26;2.40;;;2.30;;
2544;SDS011;36212;48.838;9.142;2023-07-29T15:31:58;2.10;;;1.90;;
2544;SDS011;36212;48.838;9.142;2023-07-29T15:34:30;2.23;;;2.13;;
2544;SDS011;36212;48.838;9.142;2023-07-29T15:37:03;2.30;;;2.20;;
2544;SDS011;36212;48.838;9.142;2023-07-29T15:39:36;2.87;;;2.20;;
2544;SDS011;36212;48.838;9.142;2023-07-29T15:42:11;1.90;;;1.80;;
2544;SDS011;36212;48.838;9.142;2023-07-29T15:44:43;2.00;;;1.90;;
2544;SDS011;36212;48.838;9.142;2023-07-29T15:47:15;2.33;;;2.23;;
2544;SDS011;36212;48.838;9.142;2023-07-29T15:49:50;2.20;;;2.10;;
2544;SDS011;36212;48.838;9.142;2023-07-29T15:52:22;2.17;;;2.07;;
2544;SDS011;36212;48.838;9.142;2023-07-29T15:54:57;3.33;;;1.93;;
2544;SDS011;36212;48.838;9.142;2023-07-29T15:57:29;2.00;;;1.90;;
2544;SDS011;36212;48.838;9.142;2023-07-29T16:00:02;2.20;;;2.00;;
2544;SDS011;36212;48.838;9.142;2023-07-29T16:02:36;1.90;;;1.80;;
2544;SDS011;36212;48.838;9.142;2023-07-29T16:05:10;2.70;;;2.50;;
2544;SDS011;36212;48.838;9.142;2023-07-29T16:07:42;3.10;;;2.50;;
2544;SDS011;36212;48.838;9.142;2023-07-29T16:10:14;1.80;;;1.70;;
2544;SDS011;36212;48.838;9.142;2023-07-29T16:12:47;2.40;;;2.20;;